Weather History for Silver City, NM

Change the Weather History Date:

Tuesday, December 4, 2012

  Actual Average (KDMN) Record (KDMN)
Temperature  
Mean Temperature 48 °F 44 °F  
Max Temperature 64 °F 59 °F 76 °F (1958)
Min Temperature 33 °F 28 °F 15 °F (1952)
Degree Days  
Heating Degree Days 16    
Moisture  
Dew Point 26 °F    
Average Humidity 46    
Maximum Humidity 81    
Minimum Humidity 22    
Precipitation  
Precipitation 0.00 in 0.03 in 0.41 in (1992)
Month to date precipitation 0.12  
Year to date precipitation 10.78  
Sea Level Pressure  
Sea Level Pressure 30.35 in    
Wind  
Wind Speed 8 mph (NNW)    
Max Wind Speed 13 mph    
Max Gust Speed 17 mph    
Visibility 10 miles    
Events      
T = Trace of Precipitation, MM = Missing Value Source: NWS Daily Summary

Daily Weather History Graph

Daily Weather History Graph

Search for Another Location

Airport:

Trip Planner

Search our weather history database for the weather conditions in past years. The results will help you decide how hot, cold, wet, or windy it might be!

Date:

Astronomy

Dec. 04, 2012 Rise Set
Actual Time 6:59 AM MST 5:06 PM MST
Civil Twilight 6:32 AM MST 5:33 PM MST
Nautical Twilight 6:02 AM MST 6:03 PM MST
Astronomical Twilight 5:32 AM MST 6:33 PM MST
Moon 10:44 PM MST (12/4) 11:06 AM MST (12/4)
Length of Visible Light 11h 00m
Length of Day
10h 06m
Waning Gibbous, 69% of the Moon is Illuminated
Dec 4
Waning Gibbous
Dec 6
Last Quarter
Dec 13
New
Dec 19
First Quarter
Dec 28
Full

Hourly Weather History & Observations

Time (MST) Temp. Windchill Dew Point Humidity Pressure Visibility Wind Dir Wind Speed Gust Speed Precip Events Conditions
12:15 AM 44.6 °F 38.8 °F 32.0 °F 61% 30.26 in 10.0 mi NNW 11.5 mph - N/A   Clear
12:35 AM 44.6 °F 38.8 °F 32.0 °F 61% 30.26 in 10.0 mi NNW 11.5 mph - N/A   Clear
12:55 AM 46.4 °F 41.5 °F 33.8 °F 62% 30.26 in 10.0 mi NNW 10.4 mph - N/A   Clear
1:15 AM 46.4 °F 41.5 °F 33.8 °F 62% 30.27 in 10.0 mi North 10.4 mph - N/A   Clear
1:55 AM 44.6 °F 38.8 °F 32.0 °F 61% 30.27 in 10.0 mi NNW 11.5 mph - N/A   Clear
2:15 AM 41.0 °F 35.2 °F 32.0 °F 70% 30.28 in 10.0 mi North 9.2 mph - N/A   Clear
2:35 AM 41.0 °F 34.3 °F 32.0 °F 70% 30.28 in 10.0 mi North 11.5 mph - N/A   Clear
2:55 AM 41.0 °F 35.2 °F 32.0 °F 70% 30.28 in 10.0 mi North 9.2 mph - N/A   Clear
3:15 AM 41.0 °F 34.3 °F 32.0 °F 70% 30.29 in 10.0 mi NNW 11.5 mph - N/A   Clear
3:35 AM 41.0 °F 34.7 °F 32.0 °F 70% 30.28 in 10.0 mi North 10.4 mph - N/A   Clear
3:55 AM 37.4 °F 33.8 °F 30.2 °F 75% 30.28 in 10.0 mi NNW 4.6 mph - N/A   Clear
4:15 AM 37.4 °F 31.4 °F 30.2 °F 75% 30.28 in 10.0 mi NNW 8.1 mph - N/A   Clear
4:35 AM 37.4 °F 31.4 °F 30.2 °F 75% 30.29 in 10.0 mi NNW 8.1 mph - N/A   Clear
4:55 AM 37.4 °F 30.8 °F 32.0 °F 81% 30.29 in 10.0 mi NW 9.2 mph - N/A   Clear
5:15 AM 39.2 °F 33.0 °F 30.2 °F 70% 30.29 in 10.0 mi NW 9.2 mph - N/A   Clear
5:35 AM 37.4 °F 30.8 °F 28.4 °F 70% 30.30 in 10.0 mi NNW 9.2 mph - N/A   Clear
5:55 AM 37.4 °F 30.8 °F 28.4 °F 70% 30.31 in 10.0 mi NNW 9.2 mph - N/A   Clear
6:15 AM 37.4 °F 30.8 °F 28.4 °F 70% 30.32 in 10.0 mi North 9.2 mph - N/A   Clear
6:35 AM 35.6 °F 30.7 °F 26.6 °F 70% 30.33 in 10.0 mi NNW 5.8 mph - N/A   Clear
6:55 AM 33.8 °F 28.6 °F 26.6 °F 75% 30.35 in 10.0 mi NNW 5.8 mph - N/A   Clear
7:15 AM 35.6 °F 28.6 °F 26.6 °F 70% 30.35 in 10.0 mi NNW 9.2 mph - N/A   Clear
7:35 AM 37.4 °F 30.8 °F 26.6 °F 65% 30.36 in 10.0 mi NNW 9.2 mph - N/A   Clear
7:55 AM 41.0 °F 35.2 °F 28.4 °F 61% 30.37 in 10.0 mi NNW 9.2 mph - N/A   Clear
8:15 AM 44.6 °F 41.4 °F 28.4 °F 53% 30.37 in 10.0 mi NW 5.8 mph - N/A   Clear
8:35 AM 48.2 °F - 28.4 °F 46% 30.38 in 10.0 mi NW 8.1 mph - N/A   Clear
8:55 AM 48.2 °F - 28.4 °F 46% 30.38 in 10.0 mi NW 5.8 mph - N/A   Clear
9:15 AM 53.6 °F - 28.4 °F 38% 30.39 in 10.0 mi NNW 5.8 mph - N/A   Clear
9:35 AM 55.4 °F - 30.2 °F 38% 30.39 in 10.0 mi NNW 4.6 mph - N/A   Clear
9:55 AM 57.2 °F - 30.2 °F 36% 30.40 in 10.0 mi NW 4.6 mph - N/A   Clear
10:15 AM 57.2 °F - 32.0 °F 38% 30.41 in 10.0 mi Calm Calm - N/A   Clear
10:35 AM 57.2 °F - 32.0 °F 38% 30.41 in 10.0 mi WSW 3.5 mph - N/A   Clear
11:15 AM 59.0 °F - 30.2 °F 34% 30.41 in 8.0 mi West 3.5 mph - N/A   Clear
11:35 AM 59.0 °F - 30.2 °F 34% 30.40 in 10.0 mi Calm Calm - N/A   Clear
11:55 AM 60.8 °F - 30.2 °F 31% 30.39 in 10.0 mi Calm Calm - N/A   Clear
12:15 PM 60.8 °F - 30.2 °F 31% 30.38 in 10.0 mi SSE 5.8 mph - N/A   Clear
12:35 PM 60.8 °F - 28.4 °F 29% 30.37 in 10.0 mi East 3.5 mph - N/A   Clear
12:55 PM 62.6 °F - 28.4 °F 27% 30.36 in 10.0 mi SSE 5.8 mph - N/A   Clear
1:15 PM 62.6 °F - 24.8 °F 24% 30.35 in 10.0 mi Calm Calm - N/A   Clear
1:35 PM 62.6 °F - 26.6 °F 26% 30.34 in 10.0 mi ESE 3.5 mph - N/A   Clear
1:55 PM 64.4 °F - 24.8 °F 22% 30.34 in 10.0 mi SE 11.5 mph - N/A   Clear
2:15 PM 64.4 °F - 24.8 °F 22% 30.33 in 10.0 mi SSE 10.4 mph - N/A   Clear
2:35 PM 64.4 °F - 26.6 °F 24% 30.33 in 10.0 mi SSE 12.7 mph 16.1 mph N/A   Clear
2:55 PM 64.4 °F - 26.6 °F 24% 30.33 in 10.0 mi South 5.8 mph 17.3 mph N/A   Clear
3:15 PM 62.6 °F - 24.8 °F 24% 30.33 in 10.0 mi South 5.8 mph - N/A   Clear
3:35 PM 64.4 °F - 24.8 °F 22% 30.33 in 10.0 mi South 11.5 mph - N/A   Clear
3:55 PM 62.6 °F - 24.8 °F 24% 30.33 in 10.0 mi South 11.5 mph - N/A   Clear
4:15 PM 62.6 °F - 24.8 °F 24% 30.33 in 10.0 mi South 12.7 mph - N/A   Clear
4:35 PM 59.0 °F - 23.0 °F 25% 30.34 in 10.0 mi SSE 11.5 mph - N/A   Clear
4:55 PM 59.0 °F - 21.2 °F 23% 30.34 in 10.0 mi SSE 9.2 mph - N/A   Clear
5:15 PM 55.4 °F - 19.4 °F 25% 30.35 in 10.0 mi SSE 9.2 mph - N/A   Clear
5:35 PM 53.6 °F - 17.6 °F 24% 30.35 in 10.0 mi SSE 6.9 mph - N/A   Clear
5:55 PM 51.8 °F - 17.6 °F 26% 30.36 in 10.0 mi SSE 4.6 mph - N/A   Clear
6:15 PM 51.8 °F - 17.6 °F 26% 30.36 in 10.0 mi SSE 5.8 mph - N/A   Clear
6:35 PM 50.0 °F - 19.4 °F 30% 30.37 in 10.0 mi ESE 5.8 mph - N/A   Clear
6:55 PM 48.2 °F - 19.4 °F 32% 30.37 in 10.0 mi Calm Calm - N/A   Clear
7:15 PM 44.6 °F 41.4 °F 19.4 °F 37% 30.37 in 10.0 mi ENE 5.8 mph - N/A   Clear
7:35 PM 46.4 °F 42.9 °F 19.4 °F 34% 30.38 in 10.0 mi NE 6.9 mph - N/A   Clear
7:55 PM 44.6 °F 40.7 °F 19.4 °F 37% 30.38 in 10.0 mi NE 6.9 mph - N/A   Clear
8:15 PM 39.2 °F 34.2 °F 17.6 °F 42% 30.38 in 10.0 mi NW 6.9 mph - N/A   Clear
8:35 PM 41.0 °F 35.8 °F 19.4 °F 42% 30.38 in 10.0 mi NNW 8.1 mph - N/A   Clear
8:55 PM 37.4 °F 32.1 °F 17.6 °F 45% 30.38 in 10.0 mi North 6.9 mph - N/A   Clear
9:15 PM 37.4 °F 32.1 °F 17.6 °F 45% 30.38 in 10.0 mi North 6.9 mph - N/A   Clear
9:35 PM 41.0 °F 35.2 °F 19.4 °F 42% 30.38 in 10.0 mi North 9.2 mph - N/A   Clear
9:55 PM 39.2 °F 35.0 °F 19.4 °F 45% 30.38 in 10.0 mi NNW 5.8 mph - N/A   Clear
10:15 PM 39.2 °F 35.0 °F 19.4 °F 45% 30.38 in 10.0 mi NW 5.8 mph - N/A   Clear
10:35 PM 35.6 °F 29.2 °F 17.6 °F 48% 30.38 in 10.0 mi NNW 8.1 mph - N/A   Clear
10:55 PM 35.6 °F 28.6 °F 17.6 °F 48% 30.39 in 10.0 mi NNW 9.2 mph - N/A   Clear
11:15 PM 37.4 °F 30.8 °F 19.4 °F 48% 30.39 in 10.0 mi NNW 9.2 mph - N/A   Clear
11:35 PM 37.4 °F 30.3 °F 17.6 °F 45% 30.38 in 10.0 mi North 10.4 mph - N/A   Clear
11:55 PM 37.4 °F 29.8 °F 19.4 °F 48% 30.37 in 10.0 mi North 11.5 mph - N/A   Clear